METAR stanice u blizini

 

LYBE - Beograd / Surčin, Srbija
Ažurirano: 19/07/2024 14:00
Vedro
Vedro
 Pravac vetra S
Vetar: S 15 km/h
Temperatura: 32°C
Heat Index: 34°C
Tačka rose: 20°C
Vlažnost: 49%
Pritisak: 1015 hPa
Pregled: Vedro
Vidljivost: greater than 10 km
2024/07/19 12:00 LYBE 191200Z 35008KT 310V040 CAVOK 32/20 Q1015 NOSIG
LYBT - Beograd / Batajnica, Srbija
Ažurirano: 19/07/2024 14:00
Vedro
Vedro
 Pravac vetra S
Vetar: S 11 km/h
Temperatura: 34°C
Heat Index: 38°C
Tačka rose: 22°C
Vlažnost: 49%
Pritisak: 1015 hPa
Pregled: Vedro
Vidljivost: greater than 10 km
2024/07/19 12:00 LYBT 191200Z 36006KT 280V070 CAVOK 34/22 Q1015 NOSIG
LYVR - Vršac, Srbija
Ažurirano: 19/07/2024 14:00
Vedro
Vedro
 Pravac vetra SZ
Vetar: SZ 11 km/h
Temperatura: 33°C
Heat Index: 34°C
Tačka rose: 19°C
Vlažnost: 44%
Pritisak: 1015 hPa
Pregled: Vedro
Vidljivost: greater than 10 km
2024/07/19 12:00 LYVR 191200Z AUTO 31006KT 260V360 CAVOK 33/19 Q1015
 
LYKV - Lađevci, Srbija
Ažurirano: 19/07/2024 14:00
Nearby thunderstorm, Delimično oblačno
Nearby thunderstorm, Delimično oblačno
 Pravac vetra SSI
Vetar: SSI 11 km/h
Temperatura: 34°C
Tačka rose: 18°C
Vlažnost: 39%
Pritisak: 1014 hPa
Pregled: Nearby Thunderstorm
Oblaci: Partly Cloudy
Vidljivost: 10 km
Cloud details: Few Clouds 1067 m
Partly Cloudy 1372 m
2024/07/19 12:00 LYKV 191200Z 02006KT 340V060 9999 VCTS FEW035TCU SCT045 34/18 Q1014 TEMPO VRB16KT TS FEW033CB SCT050
LYNI - Niš, Srbija
Ažurirano: 19/07/2024 14:00
Vedro
Vedro
 Pravac vetra SZ
Vetar: SZ 15 km/h
Temperatura: 37°C
Tačka rose: 18°C
Vlažnost: 33%
Pritisak: 1014 hPa
Pregled: Vedro
Vidljivost: greater than 10 km
2024/07/19 12:00 LYNI 191200Z 31008KT 260V350 CAVOK 37/18 Q1014 NOSIG
BKPR - Priština, Srbija
Ažurirano: 19/07/2024 14:30
Few Clouds
Few Clouds
 Pravac vetra SI
Vetar: SI 15 km/h
Temperatura: 35°C
Tačka rose: 15°C
Vlažnost: 30%
Pritisak: 1015 hPa
Oblaci: Few Clouds
Vidljivost: 10 km
Cloud details: Few Clouds 1524 m
2024/07/19 12:30 BKPR 191230Z 04008KT 010V070 9999 FEW050 35/15 Q1015 TEMPO TS FEW030CB
 
LHPP - Pecs / Pogany, Hungary
Ažurirano: 19/07/2024 13:45
Vedro
Vedro
 Pravac vetra varies
Vetar: varies 11 km/h
Temperatura: 32°C
Heat Index: 33°C
Tačka rose: 18°C
Vlažnost: 43%
Pritisak: 1017 hPa
Pregled: Vedro
Vidljivost: greater than 10 km
2024/07/19 11:45 LHPP 191145Z AUTO VRB06KT CAVOK 32/18 Q1017
LHUD - Szeged, Hungary
Ažurirano: 04/07/2019 01:45
NOT Current
Vedro
Vedro
 Pravac vetra S
Vetar: S 7 km/h
Temperatura: 18°C
Tačka rose: 13°C
Vlažnost: 73%
Pritisak: 1019 hPa
Pregled: Vedro
Vidljivost: greater than 10 km
2019/07/03 23:45 LHUD 032345Z 35004KT CAVOK 18/13 Q1019
LRTR - Timisoara, Romania
Ažurirano: 19/07/2024 14:00
Few Clouds
Few Clouds
 Pravac vetra SSZ
Vetar: SSZ 17 km/h
Temperatura: 34°C
Tačka rose: 15°C
Vlažnost: 32%
Pritisak: 1015 hPa
Oblaci: Few Clouds
Vidljivost: 10 km
Cloud details: Few Clouds 1463 m
Few Clouds 1676 m
2024/07/19 12:00 LRTR 191200Z 33009KT 9999 FEW048 FEW055CB 34/15 Q1015
 
LRCV - Craiova, Romania
Ažurirano: 19/07/2024 14:00
Vedro
Vedro
 Pravac vetra I
Vetar: I 13 km/h
Temperatura: 33°C
Heat Index: 34°C
Tačka rose: 18°C
Vlažnost: 41%
Pritisak: 1015 hPa
Pregled: Vedro
Vidljivost: greater than 10 km
2024/07/19 12:00 LRCV 191200Z 10007KT 070V130 CAVOK 33/18 Q1015
LBSF - Sofia, Bulgaria
Ažurirano: 19/07/2024 14:00
Few Clouds
Few Clouds
 Pravac vetra varies
Vetar: varies 9 km/h
Temperatura: 34°C
Tačka rose: 16°C
Vlažnost: 34%
Pritisak: 1016 hPa
Oblaci: Few Clouds
Vidljivost: 10 km
Cloud details: Few Clouds 1829 m
2024/07/19 12:00 LBSF 191200Z VRB05KT 9999 FEW060 34/16 Q1016 NOSIG
LWSK - Skoplje, Makedonija
Ažurirano: 19/07/2024 13:50
Few Clouds
Few Clouds
 Pravac vetra varies
Vetar: varies 9 km/h
Temperatura: 39°C
Tačka rose: 19°C
Vlažnost: 31%
Pritisak: 1013 hPa
Oblaci: Few Clouds
Vidljivost: 10 km
Cloud details: Few Clouds 1798 m
2024/07/19 11:50 LWSK 191150Z VRB05KT 9999 FEW059 39/19 Q1013 NOSIG
 
LYPG - Podgorica, Crna Gora
Ažurirano: 19/07/2024 14:00
Few Clouds
Few Clouds
 Pravac vetra J
Vetar: J 17 km/h
Temperatura: 39°C
Tačka rose: 18°C
Vlažnost: 29%
Pritisak: 1010 hPa
Oblaci: Few Clouds
Vidljivost: 10 km
Cloud details: Few Clouds 1219 m
2024/07/19 12:00 LYPG 191200Z 19009KT 150V220 9999 FEW040TCU 39/18 Q1010 NOSIG
LQSA - Sarajevo, Bosna i Hercegovina
Ažurirano: 19/07/2024 14:00
Mostly Cloudy
Mostly Cloudy
 Pravac vetra S
Vetar: S 13 km/h
Temperatura: 30°C
Heat Index: 31°C
Tačka rose: 19°C
Vlažnost: 52%
Pritisak: 1017 hPa
Oblaci: Mostly Cloudy
Vidljivost: 10 km
Cloud details: Few Clouds 1067 m
Mostly Cloudy 1372 m
2024/07/19 12:00 LQSA 191200Z 35007KT 310V020 9999 FEW035CB BKN045 30/19 Q1017 TEMPO TSRA
LDOS - Osijek, Hrvatksa
Ažurirano: 19/07/2024 14:00
Vedro
Vedro
 Pravac vetra SSI
Vetar: SSI 17 km/h
Temperatura: 34°C
Tačka rose: 17°C
Vlažnost: 36%
Pritisak: 1016 hPa
Pregled: Vedro
Vidljivost: greater than 10 km
2024/07/19 12:00 LDOS 191200Z 03009KT 350V080 CAVOK 34/17 Q1016